sensor_id;sensor_type;location;lat;lon;timestamp;P1;durP1;ratioP1;P2;durP2;ratioP2
21731;SDS011;11028;51.156;17.130;2022-12-07T00:01:21;20.90;;;11.73;;
21731;SDS011;11028;51.156;17.130;2022-12-07T00:08:39;21.00;;;11.10;;
21731;SDS011;11028;51.156;17.130;2022-12-07T00:15:59;18.27;;;9.23;;
21731;SDS011;11028;51.156;17.130;2022-12-07T00:23:18;16.77;;;9.75;;
21731;SDS011;11028;51.156;17.130;2022-12-07T00:30:35;13.43;;;8.07;;
21731;SDS011;11028;51.156;17.130;2022-12-07T00:37:52;17.50;;;8.82;;
21731;SDS011;11028;51.156;17.130;2022-12-07T00:45:11;14.07;;;8.20;;
21731;SDS011;11028;51.156;17.130;2022-12-07T00:52:28;14.90;;;7.93;;
21731;SDS011;11028;51.156;17.130;2022-12-07T00:59:44;14.57;;;8.35;;
21731;SDS011;11028;51.156;17.130;2022-12-07T01:07:03;16.83;;;9.20;;
21731;SDS011;11028;51.156;17.130;2022-12-07T01:14:20;13.95;;;7.90;;
21731;SDS011;11028;51.156;17.130;2022-12-07T01:21:36;9.48;;;5.45;;
21731;SDS011;11028;51.156;17.130;2022-12-07T01:28:58;8.65;;;5.40;;
21731;SDS011;11028;51.156;17.130;2022-12-07T01:36:16;8.00;;;5.35;;
21731;SDS011;11028;51.156;17.130;2022-12-07T01:43:35;8.55;;;4.97;;
21731;SDS011;11028;51.156;17.130;2022-12-07T01:50:56;7.90;;;5.18;;
21731;SDS011;11028;51.156;17.130;2022-12-07T01:58:17;9.38;;;4.90;;
21731;SDS011;11028;51.156;17.130;2022-12-07T02:05:34;6.93;;;4.60;;
21731;SDS011;11028;51.156;17.130;2022-12-07T02:12:54;6.90;;;4.65;;
21731;SDS011;11028;51.156;17.130;2022-12-07T02:20:17;5.28;;;3.58;;
21731;SDS011;11028;51.156;17.130;2022-12-07T02:27:40;5.93;;;3.60;;
21731;SDS011;11028;51.156;17.130;2022-12-07T02:35:04;4.28;;;3.17;;
21731;SDS011;11028;51.156;17.130;2022-12-07T02:42:23;7.63;;;3.75;;
21731;SDS011;11028;51.156;17.130;2022-12-07T02:49:43;5.05;;;3.28;;
21731;SDS011;11028;51.156;17.130;2022-12-07T02:57:03;6.10;;;3.28;;
21731;SDS011;11028;51.156;17.130;2022-12-07T03:04:32;4.47;;;2.78;;
21731;SDS011;11028;51.156;17.130;2022-12-07T03:11:55;4.82;;;3.00;;
21731;SDS011;11028;51.156;17.130;2022-12-07T03:19:18;5.60;;;3.03;;
21731;SDS011;11028;51.156;17.130;2022-12-07T03:26:38;3.92;;;2.60;;
21731;SDS011;11028;51.156;17.130;2022-12-07T03:33:59;4.68;;;2.58;;
21731;SDS011;11028;51.156;17.130;2022-12-07T03:41:22;3.33;;;2.47;;
21731;SDS011;11028;51.156;17.130;2022-12-07T03:48:43;3.47;;;2.40;;
21731;SDS011;11028;51.156;17.130;2022-12-07T03:56:04;3.47;;;2.50;;
21731;SDS011;11028;51.156;17.130;2022-12-07T04:03:22;3.22;;;2.72;;
21731;SDS011;11028;51.156;17.130;2022-12-07T04:10:39;3.55;;;3.00;;
21731;SDS011;11028;51.156;17.130;2022-12-07T04:17:56;3.97;;;3.50;;
21731;SDS011;11028;51.156;17.130;2022-12-07T04:25:15;4.32;;;3.33;;
21731;SDS011;11028;51.156;17.130;2022-12-07T04:32:32;6.05;;;4.55;;
21731;SDS011;11028;51.156;17.130;2022-12-07T04:39:49;5.75;;;4.28;;
21731;SDS011;11028;51.156;17.130;2022-12-07T04:47:07;7.50;;;5.18;;
21731;SDS011;11028;51.156;17.130;2022-12-07T04:54:24;5.53;;;3.97;;
21731;SDS011;11028;51.156;17.130;2022-12-07T05:01:40;4.20;;;3.40;;
21731;SDS011;11028;51.156;17.130;2022-12-07T05:08:59;4.43;;;3.42;;
21731;SDS011;11028;51.156;17.130;2022-12-07T05:16:16;7.18;;;4.22;;
21731;SDS011;11028;51.156;17.130;2022-12-07T05:23:33;7.97;;;4.68;;
21731;SDS011;11028;51.156;17.130;2022-12-07T05:30:51;10.93;;;5.53;;
21731;SDS011;11028;51.156;17.130;2022-12-07T05:38:08;9.07;;;5.47;;
21731;SDS011;11028;51.156;17.130;2022-12-07T05:45:25;11.25;;;6.30;;
21731;SDS011;11028;51.156;17.130;2022-12-07T05:52:43;12.52;;;6.95;;
21731;SDS011;11028;51.156;17.130;2022-12-07T06:00:01;15.75;;;9.43;;
21731;SDS011;11028;51.156;17.130;2022-12-07T06:07:27;19.30;;;8.80;;
21731;SDS011;11028;51.156;17.130;2022-12-07T06:14:46;20.05;;;10.88;;
21731;SDS011;11028;51.156;17.130;2022-12-07T06:22:03;26.00;;;12.75;;
21731;SDS011;11028;51.156;17.130;2022-12-07T06:29:20;23.85;;;12.00;;
21731;SDS011;11028;51.156;17.130;2022-12-07T06:36:39;28.23;;;13.40;;
21731;SDS011;11028;51.156;17.130;2022-12-07T06:43:56;28.15;;;14.07;;
21731;SDS011;11028;51.156;17.130;2022-12-07T06:51:12;28.05;;;13.65;;
21731;SDS011;11028;51.156;17.130;2022-12-07T06:58:31;28.60;;;13.63;;
21731;SDS011;11028;51.156;17.130;2022-12-07T07:05:48;25.42;;;13.13;;
21731;SDS011;11028;51.156;17.130;2022-12-07T07:13:05;27.33;;;13.93;;
21731;SDS011;11028;51.156;17.130;2022-12-07T07:20:23;21.77;;;12.52;;
21731;SDS011;11028;51.156;17.130;2022-12-07T07:27:41;25.33;;;12.63;;
21731;SDS011;11028;51.156;17.130;2022-12-07T07:34:58;24.15;;;11.35;;
21731;SDS011;11028;51.156;17.130;2022-12-07T07:42:16;24.83;;;11.73;;
21731;SDS011;11028;51.156;17.130;2022-12-07T07:49:34;26.45;;;11.93;;
21731;SDS011;11028;51.156;17.130;2022-12-07T07:56:51;21.92;;;11.27;;
21731;SDS011;11028;51.156;17.130;2022-12-07T08:04:10;24.23;;;10.45;;
21731;SDS011;11028;51.156;17.130;2022-12-07T08:11:27;19.23;;;10.32;;
21731;SDS011;11028;51.156;17.130;2022-12-07T08:18:44;21.15;;;10.43;;
21731;SDS011;11028;51.156;17.130;2022-12-07T08:26:02;22.20;;;10.50;;
21731;SDS011;11028;51.156;17.130;2022-12-07T08:33:20;19.90;;;10.45;;
21731;SDS011;11028;51.156;17.130;2022-12-07T08:40:38;21.00;;;11.20;;
21731;SDS011;11028;51.156;17.130;2022-12-07T08:47:57;20.00;;;10.23;;
21731;SDS011;11028;51.156;17.130;2022-12-07T08:55:16;18.23;;;9.25;;
21731;SDS011;11028;51.156;17.130;2022-12-07T09:02:34;21.08;;;10.30;;
21731;SDS011;11028;51.156;17.130;2022-12-07T09:09:52;19.58;;;9.70;;
21731;SDS011;11028;51.156;17.130;2022-12-07T09:17:10;15.43;;;9.18;;
21731;SDS011;11028;51.156;17.130;2022-12-07T09:24:28;18.05;;;9.65;;
21731;SDS011;11028;51.156;17.130;2022-12-07T09:31:46;15.95;;;9.20;;
21731;SDS011;11028;51.156;17.130;2022-12-07T09:39:04;12.10;;;7.80;;
21731;SDS011;11028;51.156;17.130;2022-12-07T09:46:21;13.80;;;7.57;;
21731;SDS011;11028;51.156;17.130;2022-12-07T09:53:39;12.32;;;7.00;;
21731;SDS011;11028;51.156;17.130;2022-12-07T10:00:58;14.50;;;7.30;;
21731;SDS011;11028;51.156;17.130;2022-12-07T10:08:17;11.77;;;7.03;;
21731;SDS011;11028;51.156;17.130;2022-12-07T10:15:42;11.23;;;6.70;;
21731;SDS011;11028;51.156;17.130;2022-12-07T10:23:01;9.75;;;5.70;;
21731;SDS011;11028;51.156;17.130;2022-12-07T10:30:19;16.77;;;7.00;;
21731;SDS011;11028;51.156;17.130;2022-12-07T10:37:40;12.82;;;6.25;;
21731;SDS011;11028;51.156;17.130;2022-12-07T10:45:06;15.35;;;5.35;;
21731;SDS011;11028;51.156;17.130;2022-12-07T10:52:29;9.50;;;5.55;;
21731;SDS011;11028;51.156;17.130;2022-12-07T10:59:57;6.82;;;4.35;;
21731;SDS011;11028;51.156;17.130;2022-12-07T11:07:21;7.65;;;4.47;;
21731;SDS011;11028;51.156;17.130;2022-12-07T11:14:44;8.13;;;4.80;;
21731;SDS011;11028;51.156;17.130;2022-12-07T11:22:09;8.15;;;4.93;;
21731;SDS011;11028;51.156;17.130;2022-12-07T11:29:34;6.20;;;4.90;;
21731;SDS011;11028;51.156;17.130;2022-12-07T11:37:00;8.30;;;4.60;;
21731;SDS011;11028;51.156;17.130;2022-12-07T11:44:24;9.80;;;5.43;;
21731;SDS011;11028;51.156;17.130;2022-12-07T11:51:46;6.30;;;4.00;;
21731;SDS011;11028;51.156;17.130;2022-12-07T11:59:08;5.35;;;4.28;;
21731;SDS011;11028;51.156;17.130;2022-12-07T12:06:30;9.13;;;4.35;;
21731;SDS011;11028;51.156;17.130;2022-12-07T12:14:00;8.98;;;4.32;;
21731;SDS011;11028;51.156;17.130;2022-12-07T12:21:27;8.05;;;4.50;;
21731;SDS011;11028;51.156;17.130;2022-12-07T12:28:56;7.82;;;4.95;;
21731;SDS011;11028;51.156;17.130;2022-12-07T12:36:23;7.55;;;4.97;;
21731;SDS011;11028;51.156;17.130;2022-12-07T13:06:40;6.70;;;4.50;;
21731;SDS011;11028;51.156;17.130;2022-12-07T13:21:50;8.77;;;5.13;;
21731;SDS011;11028;51.156;17.130;2022-12-07T13:29:09;5.25;;;4.25;;
21731;SDS011;11028;51.156;17.130;2022-12-07T13:36:29;8.48;;;5.70;;
21731;SDS011;11028;51.156;17.130;2022-12-07T13:44:07;9.93;;;6.20;;
21731;SDS011;11028;51.156;17.130;2022-12-07T13:51:27;17.35;;;6.40;;
21731;SDS011;11028;51.156;17.130;2022-12-07T13:58:44;9.68;;;5.47;;
21731;SDS011;11028;51.156;17.130;2022-12-07T14:06:11;9.52;;;5.40;;
21731;SDS011;11028;51.156;17.130;2022-12-07T14:13:34;10.10;;;6.20;;
21731;SDS011;11028;51.156;17.130;2022-12-07T14:21:02;9.90;;;6.97;;
21731;SDS011;11028;51.156;17.130;2022-12-07T14:28:28;13.00;;;6.28;;
21731;SDS011;11028;51.156;17.130;2022-12-07T14:35:46;9.65;;;5.70;;
21731;SDS011;11028;51.156;17.130;2022-12-07T14:43:04;9.27;;;5.70;;
21731;SDS011;11028;51.156;17.130;2022-12-07T14:50:24;11.65;;;6.38;;
21731;SDS011;11028;51.156;17.130;2022-12-07T14:57:41;11.88;;;7.75;;
21731;SDS011;11028;51.156;17.130;2022-12-07T15:04:58;13.20;;;5.97;;
21731;SDS011;11028;51.156;17.130;2022-12-07T15:12:16;11.23;;;6.05;;
21731;SDS011;11028;51.156;17.130;2022-12-07T15:19:33;9.13;;;5.85;;
21731;SDS011;11028;51.156;17.130;2022-12-07T15:26:50;10.70;;;5.90;;
21731;SDS011;11028;51.156;17.130;2022-12-07T15:34:08;14.68;;;6.40;;
21731;SDS011;11028;51.156;17.130;2022-12-07T15:41:25;9.75;;;5.60;;
21731;SDS011;11028;51.156;17.130;2022-12-07T15:48:43;24.65;;;9.85;;
21731;SDS011;11028;51.156;17.130;2022-12-07T15:56:05;16.58;;;8.07;;
21731;SDS011;11028;51.156;17.130;2022-12-07T16:03:23;13.00;;;7.22;;
21731;SDS011;11028;51.156;17.130;2022-12-07T16:10:39;10.50;;;6.60;;
21731;SDS011;11028;51.156;17.130;2022-12-07T16:17:59;15.90;;;8.82;;
21731;SDS011;11028;51.156;17.130;2022-12-07T16:25:16;24.65;;;10.32;;
21731;SDS011;11028;51.156;17.130;2022-12-07T16:32:33;30.50;;;12.77;;
21731;SDS011;11028;51.156;17.130;2022-12-07T16:39:52;18.02;;;9.77;;
21731;SDS011;11028;51.156;17.130;2022-12-07T16:47:09;35.60;;;15.48;;
21731;SDS011;11028;51.156;17.130;2022-12-07T16:54:25;32.65;;;16.75;;
21731;SDS011;11028;51.156;17.130;2022-12-07T17:01:47;23.73;;;11.52;;
21731;SDS011;11028;51.156;17.130;2022-12-07T17:09:04;22.75;;;11.05;;
21731;SDS011;11028;51.156;17.130;2022-12-07T17:16:25;15.23;;;7.57;;
21731;SDS011;11028;51.156;17.130;2022-12-07T17:23:45;15.20;;;8.15;;
21731;SDS011;11028;51.156;17.130;2022-12-07T17:31:04;14.65;;;7.68;;
21731;SDS011;11028;51.156;17.130;2022-12-07T17:38:21;16.05;;;7.47;;
21731;SDS011;11028;51.156;17.130;2022-12-07T17:45:40;19.05;;;8.30;;
21731;SDS011;11028;51.156;17.130;2022-12-07T17:52:57;20.30;;;9.60;;
21731;SDS011;11028;51.156;17.130;2022-12-07T18:00:26;15.13;;;7.78;;
21731;SDS011;11028;51.156;17.130;2022-12-07T18:07:45;17.00;;;8.20;;
21731;SDS011;11028;51.156;17.130;2022-12-07T18:15:03;16.80;;;9.45;;
21731;SDS011;11028;51.156;17.130;2022-12-07T18:22:20;16.58;;;8.02;;
21731;SDS011;11028;51.156;17.130;2022-12-07T18:29:39;13.32;;;7.32;;
21731;SDS011;11028;51.156;17.130;2022-12-07T18:36:56;13.00;;;6.95;;
21731;SDS011;11028;51.156;17.130;2022-12-07T18:44:13;14.80;;;7.47;;
21731;SDS011;11028;51.156;17.130;2022-12-07T18:51:33;13.25;;;7.20;;
21731;SDS011;11028;51.156;17.130;2022-12-07T18:58:51;17.67;;;7.07;;
21731;SDS011;11028;51.156;17.130;2022-12-07T19:06:27;17.48;;;6.50;;
21731;SDS011;11028;51.156;17.130;2022-12-07T19:13:45;15.90;;;7.55;;
21731;SDS011;11028;51.156;17.130;2022-12-07T19:21:03;14.48;;;7.38;;
21731;SDS011;11028;51.156;17.130;2022-12-07T19:28:20;12.57;;;7.22;;
21731;SDS011;11028;51.156;17.130;2022-12-07T19:35:38;15.90;;;6.85;;
21731;SDS011;11028;51.156;17.130;2022-12-07T19:42:55;16.50;;;8.15;;
21731;SDS011;11028;51.156;17.130;2022-12-07T19:50:12;17.80;;;7.13;;
21731;SDS011;11028;51.156;17.130;2022-12-07T19:57:30;15.18;;;6.60;;
21731;SDS011;11028;51.156;17.130;2022-12-07T20:04:47;13.27;;;7.60;;
21731;SDS011;11028;51.156;17.130;2022-12-07T20:12:04;14.18;;;7.60;;
21731;SDS011;11028;51.156;17.130;2022-12-07T20:19:40;16.92;;;8.10;;
21731;SDS011;11028;51.156;17.130;2022-12-07T20:26:57;17.67;;;8.82;;
21731;SDS011;11028;51.156;17.130;2022-12-07T20:34:14;37.78;;;15.02;;
21731;SDS011;11028;51.156;17.130;2022-12-07T20:41:33;17.58;;;7.10;;
21731;SDS011;11028;51.156;17.130;2022-12-07T20:49:08;13.02;;;6.95;;
21731;SDS011;11028;51.156;17.130;2022-12-07T20:56:26;8.60;;;5.50;;
21731;SDS011;11028;51.156;17.130;2022-12-07T21:03:45;13.60;;;5.63;;
21731;SDS011;11028;51.156;17.130;2022-12-07T21:11:05;12.00;;;5.97;;
21731;SDS011;11028;51.156;17.130;2022-12-07T21:18:24;12.52;;;6.25;;
21731;SDS011;11028;51.156;17.130;2022-12-07T21:25:42;12.82;;;5.70;;
21731;SDS011;11028;51.156;17.130;2022-12-07T21:32:59;21.17;;;9.52;;
21731;SDS011;11028;51.156;17.130;2022-12-07T21:40:16;10.85;;;5.78;;
21731;SDS011;11028;51.156;17.130;2022-12-07T21:47:35;12.18;;;6.45;;
21731;SDS011;11028;51.156;17.130;2022-12-07T21:54:52;10.15;;;5.78;;
21731;SDS011;11028;51.156;17.130;2022-12-07T22:02:10;15.15;;;7.25;;
21731;SDS011;11028;51.156;17.130;2022-12-07T22:09:30;13.43;;;6.43;;
21731;SDS011;11028;51.156;17.130;2022-12-07T22:16:47;14.82;;;6.70;;
21731;SDS011;11028;51.156;17.130;2022-12-07T22:24:05;11.88;;;6.50;;
21731;SDS011;11028;51.156;17.130;2022-12-07T22:31:24;14.50;;;7.45;;
21731;SDS011;11028;51.156;17.130;2022-12-07T22:38:41;15.77;;;7.05;;
21731;SDS011;11028;51.156;17.130;2022-12-07T22:45:59;15.93;;;8.52;;
21731;SDS011;11028;51.156;17.130;2022-12-07T22:53:18;17.25;;;9.15;;
21731;SDS011;11028;51.156;17.130;2022-12-07T23:00:35;17.63;;;8.27;;
21731;SDS011;11028;51.156;17.130;2022-12-07T23:07:52;16.10;;;8.60;;
21731;SDS011;11028;51.156;17.130;2022-12-07T23:15:11;15.93;;;9.45;;
21731;SDS011;11028;51.156;17.130;2022-12-07T23:22:28;19.60;;;10.00;;
21731;SDS011;11028;51.156;17.130;2022-12-07T23:29:45;22.27;;;10.23;;
21731;SDS011;11028;51.156;17.130;2022-12-07T23:37:03;23.95;;;13.68;;
21731;SDS011;11028;51.156;17.130;2022-12-07T23:44:20;25.70;;;14.02;;
21731;SDS011;11028;51.156;17.130;2022-12-07T23:51:39;13.80;;;7.63;;
21731;SDS011;11028;51.156;17.130;2022-12-07T23:58:57;15.30;;;7.40;;
